createdAt,value
2023-03-11T00:00:06.292Z,6.11
2023-03-11T00:00:37.388Z,8.69
2023-03-11T00:01:08.218Z,2.09
2023-03-11T00:01:40.159Z,4.66
2023-03-11T00:02:10.962Z,2.09
2023-03-11T00:02:41.102Z,8.69
2023-03-11T00:03:12.337Z,5.47
2023-03-11T00:03:43.329Z,20.92
2023-03-11T00:04:14.335Z,9.65
2023-03-11T00:04:45.110Z,4.98
2023-03-11T00:05:16.213Z,6.11
2023-03-11T00:05:47.577Z,9.33
2023-03-11T00:06:18.065Z,9.33
2023-03-11T00:06:50.488Z,4.98
2023-03-11T00:07:20.283Z,2.89
2023-03-11T00:07:51.733Z,16.89
2023-03-11T00:08:22.390Z,9.33
2023-03-11T00:08:53.153Z,6.92
2023-03-11T00:09:24.401Z,7.88
2023-03-11T00:09:55.314Z,21.24
2023-03-11T00:10:28.013Z,9.65
2023-03-11T00:10:57.242Z,2.09
2023-03-11T00:11:28.181Z,9.65
2023-03-11T00:12:00.138Z,4.34
2023-03-11T00:12:30.280Z,4.98
2023-03-11T00:13:01.411Z,8.69
2023-03-11T00:13:32.188Z,8.20
2023-03-11T00:14:03.174Z,2.89
2023-03-11T00:14:34.124Z,11.10
2023-03-11T00:15:05.159Z,9.65
2023-03-11T00:15:36.061Z,2.89
2023-03-11T00:16:07.046Z,4.98
2023-03-11T00:16:38.209Z,10.46
2023-03-11T00:17:10.218Z,6.43
2023-03-11T00:17:40.010Z,2.89
2023-03-11T00:18:11.503Z,1.77
2023-03-11T00:18:42.466Z,2.09
2023-03-11T00:19:13.422Z,7.24
2023-03-11T00:19:44.322Z,1.77
2023-03-11T00:20:15.641Z,5.47
2023-03-11T00:20:46.190Z,4.66
2023-03-11T00:21:17.578Z,7.56
2023-03-11T00:21:48.502Z,7.24
2023-03-11T00:22:20.424Z,3.21
2023-03-11T00:22:50.144Z,5.79
2023-03-11T00:23:21.107Z,2.89
2023-03-11T00:23:52.024Z,1.44
2023-03-11T00:24:23.149Z,3.54
2023-03-11T00:24:54.247Z,7.56
2023-03-11T00:25:25.097Z,2.89
2023-03-11T00:25:56.505Z,7.56
2023-03-11T00:26:27.559Z,6.43
2023-03-11T00:26:58.235Z,4.66
2023-03-11T00:27:30.738Z,7.56
2023-03-11T00:28:00.238Z,4.66
2023-03-11T00:28:33.754Z,1.44
2023-03-11T00:29:02.301Z,.32
2023-03-11T00:29:33.082Z,6.11
2023-03-11T00:30:04.195Z,6.92
2023-03-11T00:30:35.142Z,5.47
2023-03-11T00:31:06.247Z,3.54
2023-03-11T00:31:37.180Z,4.02
2023-03-11T00:32:08.282Z,5.79
2023-03-11T00:32:40.518Z,3.21
2023-03-11T00:33:11.213Z,9.01
2023-03-11T00:33:41.202Z,2.89
2023-03-11T00:34:12.306Z,2.89
2023-03-11T00:34:43.232Z,4.34
2023-03-11T00:35:14.140Z,6.11
2023-03-11T00:35:45.380Z,3.21
2023-03-11T00:36:16.159Z,2.09
2023-03-11T00:36:47.804Z,3.54
2023-03-11T00:37:18.071Z,2.09
2023-03-11T00:37:50.508Z,3.21
2023-03-11T00:38:20.583Z,4.34
2023-03-11T00:38:51.611Z,2.09
2023-03-11T00:39:22.443Z,1.12
2023-03-11T00:39:53.189Z,4.66
2023-03-11T00:40:24.304Z,7.24
2023-03-11T00:40:55.352Z,1.77
2023-03-11T00:41:26.143Z,2.89
2023-03-11T00:41:57.074Z,4.66
2023-03-11T00:42:28.567Z,10.78
2023-03-11T00:43:00.444Z,2.89
2023-03-11T00:43:30.349Z,4.02
2023-03-11T00:44:01.137Z,4.34
2023-03-11T00:44:32.320Z,5.79
2023-03-11T00:45:03.430Z,2.09
2023-03-11T00:45:34.610Z,10.46
2023-03-11T00:46:05.188Z,5.47
2023-03-11T00:46:37.044Z,2.89
2023-03-11T00:47:07.032Z,4.66
2023-03-11T00:47:38.367Z,1.12
2023-03-11T00:48:10.199Z,1.44
2023-03-11T00:48:40.508Z,7.24
2023-03-11T00:49:11.499Z,7.24
2023-03-11T00:49:42.313Z,5.47
2023-03-11T00:50:13.443Z,1.12
2023-03-11T00:50:44.257Z,2.09
2023-03-11T00:51:15.360Z,.64
2023-03-11T00:51:45.995Z,4.34
2023-03-11T00:52:17.400Z,3.54
2023-03-11T00:52:48.419Z,8.69
2023-03-11T00:53:20.197Z,2.09
2023-03-11T00:53:50.216Z,2.09
2023-03-11T00:54:21.409Z,2.09
2023-03-11T00:54:52.142Z,2.89
2023-03-11T00:55:23.381Z,6.11
2023-03-11T00:55:54.279Z,4.02
2023-03-11T00:56:25.656Z,3.21
2023-03-11T00:56:56.301Z,2.09
2023-03-11T00:57:27.452Z,1.12
2023-03-11T00:57:58.039Z,1.44
2023-03-11T00:58:30.143Z,0
2023-03-11T00:59:00.172Z,9.33
2023-03-11T00:59:31.286Z,2.57
2023-03-11T01:00:05.248Z,3.54
2023-03-11T01:00:33.247Z,2.57
2023-03-11T01:01:04.323Z,1.44
2023-03-11T01:01:35.301Z,1.44
2023-03-11T01:02:05.813Z,.32
2023-03-11T01:02:37.596Z,7.56
2023-03-11T01:03:08.861Z,5.79
2023-03-11T01:03:40.267Z,6.43
2023-03-11T01:04:11.705Z,1.12
2023-03-11T01:04:41.519Z,0
2023-03-11T01:05:12.304Z,.64
2023-03-11T01:05:43.198Z,2.89
2023-03-11T01:06:14.324Z,1.12
2023-03-11T01:06:46.019Z,1.44
2023-03-11T01:07:16.609Z,2.57
2023-03-11T01:07:47.218Z,2.09
2023-03-11T01:08:18.455Z,4.02
2023-03-11T01:08:50.219Z,3.54
2023-03-11T01:09:20.410Z,10.46
2023-03-11T01:09:50.922Z,4.66
2023-03-11T01:10:22.166Z,2.89
2023-03-11T01:10:53.261Z,11.10
2023-03-11T01:11:24.260Z,4.02
2023-03-11T01:11:54.935Z,2.09
2023-03-11T01:12:26.680Z,2.89
2023-03-11T01:12:57.021Z,0
2023-03-11T01:13:28.074Z,1.44
2023-03-11T01:14:00.239Z,.32
2023-03-11T01:14:30.158Z,0
2023-03-11T01:15:03.970Z,2.57
2023-03-11T01:15:32.326Z,1.12
2023-03-11T01:16:03.190Z,2.89
2023-03-11T01:16:34.124Z,4.66
2023-03-11T01:17:05.121Z,.64
2023-03-11T01:17:36.354Z,1.12
2023-03-11T01:18:07.257Z,2.09
2023-03-11T01:18:38.422Z,1.12
2023-03-11T01:19:10.250Z,.32
2023-03-11T01:19:40.140Z,1.44
2023-03-11T01:20:11.567Z,1.44
2023-03-11T01:20:42.767Z,2.89
2023-03-11T01:21:13.660Z,4.02
2023-03-11T01:21:44.226Z,6.11
2023-03-11T01:22:15.229Z,4.02
2023-03-11T01:22:46.477Z,1.77
2023-03-11T01:23:17.775Z,3.54
2023-03-11T01:23:48.327Z,6.11
2023-03-11T01:24:20.417Z,1.44
2023-03-11T01:24:50.113Z,2.89
2023-03-11T01:25:21.494Z,6.92
2023-03-11T01:25:52.250Z,9.65
2023-03-11T01:26:23.322Z,3.21
2023-03-11T01:26:54.109Z,0
2023-03-11T01:27:25.393Z,2.09
2023-03-11T01:27:56.553Z,6.11
2023-03-11T01:28:27.627Z,2.09
2023-03-11T01:28:58.486Z,2.89
2023-03-11T01:29:30.090Z,7.88
2023-03-11T01:30:00.088Z,1.77
2023-03-11T01:30:34.104Z,4.66
2023-03-11T01:31:02.807Z,6.11
2023-03-11T01:31:33.366Z,3.21
2023-03-11T01:32:04.481Z,4.66
2023-03-11T01:32:35.493Z,10.13
2023-03-11T01:33:06.388Z,7.24
2023-03-11T01:33:37.241Z,4.34
2023-03-11T01:34:08.092Z,3.21
2023-03-11T01:34:40.014Z,3.21
2023-03-11T01:35:11.172Z,7.24
2023-03-11T01:35:41.155Z,4.34
2023-03-11T01:36:11.991Z,3.21
2023-03-11T01:36:43.076Z,6.11
2023-03-11T01:37:14.439Z,10.46
2023-03-11T01:37:45.011Z,3.54
2023-03-11T01:38:16.199Z,5.47
2023-03-11T01:38:47.306Z,4.66
2023-03-11T01:39:18.158Z,1.44
2023-03-11T01:39:50.209Z,6.11
2023-03-11T01:41:24.947Z,2.89
2023-03-11T01:41:55.198Z,4.66
2023-03-11T01:42:24.477Z,3.21
2023-03-11T01:42:55.485Z,4.02
2023-03-11T01:43:26.957Z,5.47
2023-03-11T01:43:57.723Z,4.66
2023-03-11T01:44:28.627Z,2.57
2023-03-11T01:45:03.582Z,5.47
2023-03-11T01:45:30.148Z,6.43
2023-03-11T01:46:00.932Z,2.57
2023-03-11T01:46:32.239Z,3.54
2023-03-11T01:47:03.564Z,4.02
2023-03-11T01:47:34.117Z,.64
2023-03-11T01:48:05.407Z,1.44
2023-03-11T01:48:36.496Z,1.44
2023-03-11T01:49:07.507Z,3.54
2023-03-11T01:49:38.838Z,9.33
2023-03-11T01:50:10.845Z,2.09
2023-03-11T01:50:42.161Z,1.12
2023-03-11T01:51:11.906Z,2.09
2023-03-11T01:51:42.647Z,2.89
2023-03-11T01:52:13.421Z,1.44
2023-03-11T01:52:44.447Z,4.02
2023-03-11T01:53:15.390Z,2.09
2023-03-11T01:53:46.300Z,4.34
2023-03-11T01:54:17.744Z,.32
2023-03-11T01:54:51.732Z,2.89
2023-03-11T01:55:20.662Z,4.66
2023-03-11T01:55:50.437Z,2.09
2023-03-11T01:56:21.529Z,3.21
2023-03-11T01:56:52.722Z,2.89
2023-03-11T01:57:23.694Z,2.57
2023-03-11T01:57:54.490Z,2.09
2023-03-11T01:58:25.626Z,.32
2023-03-11T01:58:56.455Z,3.54
2023-03-11T01:59:27.649Z,2.09
2023-03-11T01:59:58.253Z,1.44
2023-03-11T02:00:38.909Z,3.21
2023-03-11T02:01:00.283Z,3.21
2023-03-11T02:01:32.137Z,3.54
2023-03-11T02:02:02.262Z,1.44
2023-03-11T02:02:33.200Z,1.44
2023-03-11T02:03:04.299Z,1.44
2023-03-11T02:03:35.554Z,4.66
2023-03-11T02:04:06.457Z,3.21
2023-03-11T02:04:37.678Z,5.47
2023-03-11T02:05:09.447Z,2.09
2023-03-11T02:05:40.402Z,2.57
2023-03-11T02:06:11.623Z,4.02
2023-03-11T02:06:41.371Z,2.09
2023-03-11T02:07:12.703Z,2.09
2023-03-11T02:07:43.165Z,1.77
2023-03-11T02:08:14.741Z,1.12
2023-03-11T02:08:45.637Z,2.09
2023-03-11T02:09:16.611Z,2.89
2023-03-11T02:09:47.046Z,1.12
2023-03-11T02:10:18.710Z,4.02
2023-03-11T02:10:50.458Z,3.54
2023-03-11T02:11:20.586Z,1.12
2023-03-11T02:11:51.942Z,1.44
2023-03-11T02:12:24.334Z,1.12
2023-03-11T02:12:53.734Z,1.12
2023-03-11T02:13:24.616Z,2.89
2023-03-11T02:13:55.533Z,4.02
2023-03-11T02:14:26.932Z,3.54
2023-03-11T02:14:57.822Z,1.12
2023-03-11T02:15:31.870Z,1.12
2023-03-11T02:16:00.708Z,.64
2023-03-11T02:16:30.858Z,2.09
2023-03-11T02:17:01.531Z,1.44
2023-03-11T02:17:32.573Z,1.44
2023-03-11T02:18:03.641Z,2.57
2023-03-11T02:18:34.623Z,.64
2023-03-11T02:19:05.429Z,.32
2023-03-11T02:19:36.861Z,3.21
2023-03-11T02:20:07.118Z,3.54
2023-03-11T02:20:38.547Z,.64
2023-03-11T02:21:10.869Z,4.02
2023-03-11T02:21:40.494Z,5.47
2023-03-11T02:22:11.575Z,1.44
2023-03-11T02:22:42.543Z,6.92
2023-03-11T02:23:13.494Z,1.44
2023-03-11T02:23:44.565Z,4.98
2023-03-11T02:24:15.223Z,3.21
2023-03-11T02:24:46.761Z,1.77
2023-03-11T02:25:17.517Z,1.77
2023-03-11T02:25:48.502Z,0
2023-03-11T02:26:20.637Z,2.89
2023-03-11T02:26:50.516Z,1.44
2023-03-11T02:27:21.751Z,1.12
2023-03-11T02:27:52.768Z,6.11
2023-03-11T02:28:23.491Z,6.11
2023-03-11T02:28:53.999Z,4.66
2023-03-11T02:29:25.464Z,2.09
2023-03-11T02:29:56.581Z,1.44
2023-03-11T02:30:30.309Z,1.44
2023-03-11T02:30:58.582Z,2.09
2023-03-11T02:31:30.661Z,1.12
2023-03-11T02:32:00.286Z,.32
2023-03-11T02:32:31.416Z,1.77
2023-03-11T02:33:02.622Z,2.09
2023-03-11T02:33:33.358Z,7.88
2023-03-11T02:34:04.380Z,4.02
2023-03-11T02:34:35.298Z,4.34
2023-03-11T02:35:06.058Z,2.89
2023-03-11T02:35:37.292Z,1.44
2023-03-11T02:36:08.976Z,3.54
2023-03-11T02:36:40.202Z,6.43
2023-03-11T02:37:25.607Z,5.47
2023-03-11T02:37:42.016Z,3.54
2023-03-11T02:38:12.951Z,7.24
2023-03-11T02:38:43.448Z,1.77
2023-03-11T02:39:14.405Z,4.66
2023-03-11T02:39:45.718Z,4.66
2023-03-11T02:40:16.282Z,4.02
2023-03-11T02:40:47.282Z,5.47
2023-03-11T02:41:18.259Z,6.92
2023-03-11T02:41:50.367Z,8.69
2023-03-11T02:42:20.400Z,4.34
2023-03-11T02:42:51.631Z,14.32
2023-03-11T02:43:22.358Z,9.65
2023-03-11T02:43:53.309Z,8.69
2023-03-11T02:44:25.185Z,4.98
2023-03-11T02:44:56.105Z,4.98
2023-03-11T02:45:29.691Z,3.54
2023-03-11T02:45:57.489Z,4.02
2023-03-11T02:46:28.418Z,11.58
2023-03-11T02:47:00.429Z,8.20
2023-03-11T02:47:30.407Z,10.78
2023-03-11T02:48:01.350Z,1.77
2023-03-11T02:48:32.415Z,3.54
2023-03-11T02:49:03.730Z,5.47
2023-03-11T02:49:34.679Z,6.92
2023-03-11T02:50:05.604Z,9.33
2023-03-11T02:50:36.742Z,9.33
2023-03-11T02:51:07.893Z,10.46
2023-03-11T02:51:38.743Z,5.47
2023-03-11T02:52:10.383Z,8.69
2023-03-11T02:52:40.599Z,6.11
2023-03-11T02:53:11.491Z,2.09
2023-03-11T02:53:42.637Z,2.89
2023-03-11T02:54:13.491Z,6.11
2023-03-11T02:54:44.438Z,7.88
2023-03-11T02:55:15.460Z,7.56
2023-03-11T02:55:46.488Z,10.46
2023-03-11T02:56:17.358Z,9.65
2023-03-11T02:56:48.409Z,4.98
2023-03-11T02:57:20.268Z,1.44
2023-03-11T02:57:50.302Z,4.66
2023-03-11T02:58:21.227Z,2.57
2023-03-11T02:58:52.283Z,13.03
2023-03-11T02:59:23.406Z,4.34
2023-03-11T02:59:54.485Z,2.09
2023-03-11T03:00:28.223Z,2.57
2023-03-11T03:00:56.843Z,3.54
2023-03-11T03:01:27.594Z,4.02
2023-03-11T03:01:59.028Z,.32
2023-03-11T03:02:30.171Z,5.47
2023-03-11T03:03:00.384Z,6.92
2023-03-11T03:03:31.300Z,5.47
2023-03-11T03:04:02.368Z,1.12
2023-03-11T03:04:33.208Z,0
2023-03-11T03:05:04.538Z,2.09
2023-03-11T03:05:36.701Z,1.44
2023-03-11T03:06:06.590Z,2.09
2023-03-11T03:06:37.317Z,4.02
2023-03-11T03:07:08.455Z,6.11
2023-03-11T03:07:40.304Z,.64
2023-03-11T03:08:11.257Z,4.34
2023-03-11T03:08:41.358Z,6.11
2023-03-11T03:09:12.360Z,4.02
2023-03-11T03:09:43.354Z,1.77
2023-03-11T03:10:14.654Z,1.12
2023-03-11T03:10:45.542Z,3.54
2023-03-11T03:11:16.116Z,2.89
2023-03-11T03:11:47.050Z,3.54
2023-03-11T03:12:18.666Z,10.13
2023-03-11T03:12:50.846Z,4.98
2023-03-11T03:13:20.412Z,2.57
2023-03-11T03:13:51.525Z,5.47
2023-03-11T03:14:22.943Z,5.79
2023-03-11T03:14:53.830Z,4.66
2023-03-11T03:15:27.289Z,4.66
2023-03-11T03:15:55.933Z,4.66
2023-03-11T03:16:26.671Z,1.12
2023-03-11T03:16:57.633Z,1.44
2023-03-11T03:17:28.458Z,0
2023-03-11T03:18:00.567Z,2.89
2023-03-11T03:18:30.383Z,4.02
2023-03-11T03:19:01.303Z,4.66
2023-03-11T03:19:32.467Z,5.47
2023-03-11T03:20:03.387Z,2.09
2023-03-11T03:20:34.065Z,2.89
2023-03-11T03:21:05.507Z,2.09
2023-03-11T03:21:36.648Z,1.12
2023-03-11T03:22:07.871Z,5.79
2023-03-11T03:22:38.445Z,3.21
2023-03-11T03:23:10.404Z,1.44
2023-03-11T03:23:40.686Z,5.47
2023-03-11T03:24:11.730Z,.32
2023-03-11T03:24:42.448Z,1.12
2023-03-11T03:25:13.402Z,4.66
2023-03-11T03:25:44.542Z,5.79
2023-03-11T03:26:15.270Z,10.46
2023-03-11T03:26:46.490Z,6.92
2023-03-11T03:27:17.400Z,3.54
2023-03-11T03:27:48.396Z,4.02
2023-03-11T03:28:20.352Z,1.44
2023-03-11T03:28:50.604Z,3.21
2023-03-11T03:29:21.419Z,4.98
2023-03-11T03:29:52.519Z,.32
2023-03-11T03:30:26.629Z,0
2023-03-11T03:30:54.217Z,1.44
2023-03-11T03:31:25.314Z,2.89
2023-03-11T03:31:56.966Z,2.89
2023-03-11T03:32:27.565Z,.32
2023-03-11T03:32:58.450Z,.32
2023-03-11T03:33:30.770Z,1.77
2023-03-11T03:34:00.283Z,.64
2023-03-11T03:34:31.517Z,.32
2023-03-11T03:35:02.134Z,.32
2023-03-11T03:35:33.352Z,0
2023-03-11T03:36:04.311Z,.64
2023-03-11T03:36:35.432Z,.32
2023-03-11T03:37:06.410Z,2.57
2023-03-11T03:37:37.974Z,1.44
2023-03-11T03:38:08.525Z,4.02
2023-03-11T03:38:40.503Z,4.02
2023-03-11T03:39:12.302Z,1.44
2023-03-11T03:39:41.644Z,4.98
2023-03-11T03:40:12.672Z,1.12
2023-03-11T03:40:43.392Z,1.12
2023-03-11T03:41:14.708Z,.32
2023-03-11T03:41:45.632Z,.32
2023-03-11T03:42:16.310Z,2.09
2023-03-11T03:42:47.566Z,0
2023-03-11T03:43:18.327Z,.32
2023-03-11T03:43:50.398Z,1.44
2023-03-11T03:44:20.446Z,1.44
2023-03-11T03:44:51.222Z,1.12
2023-03-11T03:45:25.798Z,.32
2023-03-11T03:45:53.835Z,3.21
2023-03-11T03:46:24.344Z,4.02
2023-03-11T03:46:55.739Z,2.09
2023-03-11T03:47:26.910Z,1.44
2023-03-11T03:47:57.387Z,.32
2023-03-11T03:48:28.497Z,.32
2023-03-11T03:49:00.306Z,1.44
2023-03-11T03:49:30.613Z,1.44
2023-03-11T03:50:01.484Z,1.12
2023-03-11T03:50:32.867Z,0
2023-03-11T03:51:03.291Z,1.12
2023-03-11T03:51:34.221Z,2.09
2023-03-11T03:52:05.430Z,.32
2023-03-11T03:52:36.686Z,1.12
2023-03-11T03:53:07.434Z,6.43
2023-03-11T03:53:38.367Z,2.89
2023-03-11T03:54:10.429Z,1.44
2023-03-11T03:54:40.735Z,.32
2023-03-11T03:55:11.802Z,0
2023-03-11T03:55:42.424Z,0
2023-03-11T03:56:13.488Z,.32
2023-03-11T03:56:44.481Z,.32
2023-03-11T03:57:15.539Z,0
2023-03-11T03:57:46.577Z,4.66
2023-03-11T03:58:17.594Z,2.57
2023-03-11T03:58:48.559Z,.32
2023-03-11T03:59:20.944Z,0
2023-03-11T03:59:50.145Z,.64
2023-03-11T04:00:24.421Z,3.54
2023-03-11T04:00:52.383Z,1.77
2023-03-11T04:01:23.511Z,.64
2023-03-11T04:01:54.908Z,2.57
2023-03-11T04:02:25.550Z,4.02
2023-03-11T04:02:56.543Z,4.34
2023-03-11T04:03:27.447Z,3.54
2023-03-11T04:03:58.581Z,5.79
2023-03-11T04:04:30.399Z,2.09
2023-03-11T04:05:00.895Z,6.11
2023-03-11T04:05:31.605Z,9.65
2023-03-11T04:06:02.827Z,7.88
2023-03-11T04:06:33.644Z,4.66
2023-03-11T04:07:03.955Z,4.34
2023-03-11T04:07:35.294Z,4.02
2023-03-11T04:08:06.460Z,2.89
2023-03-11T04:08:37.489Z,.32
2023-03-11T04:09:08.767Z,0
2023-03-11T04:09:40.772Z,0
2023-03-11T04:10:11.824Z,.64
2023-03-11T04:10:41.706Z,0
2023-03-11T04:11:12.536Z,0
2023-03-11T04:11:43.968Z,0
2023-03-11T04:12:14.783Z,.64
2023-03-11T04:12:45.560Z,1.77
2023-03-11T04:13:16.587Z,2.89
2023-03-11T04:13:47.704Z,1.77
2023-03-11T04:14:18.545Z,3.21
2023-03-11T04:14:50.561Z,3.54
2023-03-11T04:15:23.180Z,6.11
2023-03-11T04:15:51.973Z,5.79
2023-03-11T04:16:22.359Z,6.92
2023-03-11T04:16:53.354Z,10.13
2023-03-11T04:17:24.277Z,2.09
2023-03-11T04:17:55.857Z,5.47
2023-03-11T04:18:26.581Z,7.88
2023-03-11T04:18:57.824Z,1.77
2023-03-11T04:19:28.796Z,4.66
2023-03-11T04:20:00.729Z,6.92
2023-03-11T04:20:30.832Z,4.66
2023-03-11T04:21:01.671Z,6.43
2023-03-11T04:21:32.855Z,7.56
2023-03-11T04:22:03.653Z,12.23
2023-03-11T04:22:34.725Z,7.24
2023-03-11T04:23:05.736Z,10.46
2023-03-11T04:23:36.424Z,9.65
2023-03-11T04:24:07.923Z,4.66
2023-03-11T04:24:38.746Z,6.43
2023-03-11T04:25:10.745Z,6.11
2023-03-11T04:25:40.558Z,5.47
2023-03-11T04:26:11.729Z,3.21
2023-03-11T04:26:42.539Z,8.20
2023-03-11T04:27:13.632Z,5.47
2023-03-11T04:27:44.380Z,7.56
2023-03-11T04:28:15.312Z,8.20
2023-03-11T04:28:46.485Z,9.33
2023-03-11T04:29:17.713Z,5.79
2023-03-11T04:29:48.668Z,11.10
2023-03-11T04:30:23.261Z,14.32
2023-03-11T04:30:50.247Z,16.25
2023-03-11T04:31:22.620Z,11.90
2023-03-11T04:31:52.377Z,10.46
2023-03-11T04:32:23.684Z,7.88
2023-03-11T04:32:54.734Z,9.01
2023-03-11T04:33:25.638Z,6.11
2023-03-11T04:33:57.016Z,5.79
2023-03-11T04:34:27.528Z,8.20
2023-03-11T04:34:58.564Z,1.77
2023-03-11T04:35:30.420Z,3.54
2023-03-11T04:36:00.874Z,2.89
2023-03-11T04:36:31.560Z,6.11
2023-03-11T04:37:03.169Z,4.34
2023-03-11T04:37:33.674Z,8.69
2023-03-11T04:38:04.608Z,6.11
2023-03-11T04:38:35.532Z,2.09
2023-03-11T04:39:06.240Z,4.02
2023-03-11T04:39:37.430Z,6.92
2023-03-11T04:40:08.268Z,4.66
2023-03-11T04:40:40.219Z,2.89
2023-03-11T04:41:11.517Z,7.56
2023-03-11T04:41:41.568Z,7.56
2023-03-11T04:42:12.866Z,7.24
2023-03-11T04:42:43.549Z,4.98
2023-03-11T04:43:14.640Z,5.79
2023-03-11T04:43:45.923Z,9.33
2023-03-11T04:44:16.607Z,9.33
2023-03-11T04:44:47.392Z,8.20
2023-03-11T04:45:21.112Z,9.33
2023-03-11T04:48:24.972Z,5.79
2023-03-11T04:48:55.753Z,3.54
2023-03-11T04:49:26.300Z,4.34
2023-03-11T04:49:57.895Z,7.88
2023-03-11T04:50:28.652Z,7.88
2023-03-11T04:51:00.784Z,5.47
2023-03-11T04:51:30.282Z,4.66
2023-03-11T04:52:01.367Z,7.24
2023-03-11T04:52:32.583Z,6.92
2023-03-11T04:53:03.484Z,6.43
2023-03-11T04:53:34.590Z,8.20
2023-03-11T04:54:05.747Z,7.88
2023-03-11T04:54:36.549Z,8.20
2023-03-11T04:55:07.811Z,7.56
2023-03-11T04:55:38.287Z,9.65
2023-03-11T04:56:10.743Z,10.46
2023-03-11T04:56:40.269Z,12.23
2023-03-11T04:57:11.692Z,7.24
2023-03-11T04:57:42.629Z,13.67
2023-03-11T04:58:13.420Z,13.35
2023-03-11T04:58:44.475Z,11.10
2023-03-11T04:59:15.513Z,7.88
2023-03-11T04:59:46.597Z,10.46
2023-03-11T05:00:21.272Z,10.46
2023-03-11T05:00:48.125Z,11.10
2023-03-11T05:01:20.534Z,8.20
2023-03-11T05:01:50.576Z,8.20
2023-03-11T05:02:21.360Z,7.88
2023-03-11T05:02:53.131Z,7.88
2023-03-11T05:03:23.742Z,6.92
2023-03-11T05:03:54.939Z,4.66
2023-03-11T05:04:25.296Z,9.65
2023-03-11T05:04:56.814Z,6.43
2023-03-11T05:05:27.486Z,4.02
2023-03-11T05:05:58.242Z,5.47
2023-03-11T05:06:31.046Z,7.88
2023-03-11T05:07:00.633Z,6.11
2023-03-11T05:07:31.288Z,6.11
2023-03-11T05:08:02.243Z,7.88
2023-03-11T05:08:33.611Z,12.23
2023-03-11T05:09:04.631Z,6.43
2023-03-11T05:09:35.700Z,7.56
2023-03-11T05:10:06.688Z,9.65
2023-03-11T05:10:37.539Z,4.02
2023-03-11T05:11:08.416Z,7.24
2023-03-11T05:11:40.803Z,9.33
2023-03-11T05:12:11.452Z,6.11
2023-03-11T05:12:42.257Z,5.79
2023-03-11T05:13:13.079Z,7.88
2023-03-11T05:13:44.006Z,5.79
2023-03-11T05:14:14.625Z,8.69
2023-03-11T05:14:45.812Z,8.20
2023-03-11T05:15:19.536Z,9.01
2023-03-11T05:15:47.256Z,9.65
2023-03-11T05:16:18.384Z,7.56
2023-03-11T05:16:50.509Z,7.24
2023-03-11T05:17:20.720Z,7.56
2023-03-11T05:17:52.057Z,4.66
2023-03-11T05:18:23.040Z,4.02
2023-03-11T05:18:53.376Z,5.47
2023-03-11T05:19:24.674Z,3.54
2023-03-11T05:19:55.636Z,4.34
2023-03-11T05:20:26.847Z,7.24
2023-03-11T05:20:57.551Z,5.47
2023-03-11T05:21:28.625Z,2.89
2023-03-11T05:22:00.712Z,11.10
2023-03-11T05:22:30.601Z,9.33
2023-03-11T05:23:01.531Z,8.20
2023-03-11T05:23:32.719Z,7.24
2023-03-11T05:24:03.644Z,7.24
2023-03-11T05:24:34.638Z,8.20
2023-03-11T05:25:10.872Z,4.98
2023-03-11T05:25:36.864Z,7.56
2023-03-11T05:26:07.380Z,10.46
2023-03-11T05:26:38.696Z,7.88
2023-03-11T05:27:10.511Z,3.21
2023-03-11T05:27:40.866Z,3.21
2023-03-11T05:28:11.629Z,7.56
2023-03-11T05:28:42.792Z,9.33
2023-03-11T05:29:13.437Z,13.35
2023-03-11T05:29:44.697Z,9.33
2023-03-11T05:30:18.140Z,4.02
2023-03-11T05:30:46.456Z,7.88
2023-03-11T05:31:17.521Z,6.11
2023-03-11T05:31:48.324Z,7.24
2023-03-11T05:32:20.470Z,11.90
2023-03-11T05:32:50.367Z,9.01
2023-03-11T05:33:21.464Z,6.43
2023-03-11T05:33:52.623Z,7.24
2023-03-11T05:34:23.640Z,8.20
2023-03-11T05:34:54.349Z,9.65
2023-03-11T05:35:25.192Z,10.46
2023-03-11T05:35:56.788Z,10.46
2023-03-11T05:36:27.250Z,4.98
2023-03-11T05:37:00.439Z,11.90
2023-03-11T05:37:30.423Z,11.90
2023-03-11T05:38:00.521Z,10.13
2023-03-11T05:38:31.382Z,11.58
2023-03-11T05:39:02.321Z,13.03
2023-03-11T05:39:33.444Z,5.79
2023-03-11T05:40:05.056Z,7.24
2023-03-11T05:40:36.041Z,4.66
2023-03-11T05:41:06.621Z,7.56
2023-03-11T05:41:37.289Z,7.24
2023-03-11T05:42:09.167Z,9.65
2023-03-11T05:42:40.532Z,10.46
2023-03-11T05:43:11.870Z,9.65
2023-03-11T05:43:41.541Z,6.11
2023-03-11T05:44:12.475Z,11.58
2023-03-11T05:44:43.697Z,10.46
2023-03-11T05:45:17.376Z,9.65
2023-03-11T05:45:45.689Z,9.33
2023-03-11T05:46:16.480Z,8.20
2023-03-11T05:46:47.336Z,12.23
2023-03-11T05:47:18.216Z,11.10
2023-03-11T05:47:50.329Z,6.11
2023-03-11T05:48:20.646Z,7.24
2023-03-11T05:48:51.675Z,5.47
2023-03-11T05:49:22.331Z,11.10
2023-03-11T05:49:53.516Z,8.69
2023-03-11T05:50:24.822Z,10.46
2023-03-11T05:50:56.038Z,7.88
2023-03-11T05:51:26.903Z,9.65
2023-03-11T05:51:58.888Z,12.23
2023-03-11T05:52:28.413Z,13.03
2023-03-11T05:53:00.970Z,10.46
2023-03-11T05:53:30.825Z,11.10
2023-03-11T05:54:01.742Z,8.69
2023-03-11T05:54:32.625Z,10.78
2023-03-11T05:55:03.774Z,11.58
2023-03-11T05:55:34.596Z,11.10
2023-03-11T05:56:05.876Z,12.23
2023-03-11T05:56:36.770Z,11.90
2023-03-11T05:57:08.288Z,12.23
2023-03-11T05:57:38.687Z,10.78
2023-03-11T05:58:10.763Z,9.01
2023-03-11T05:58:40.946Z,7.56
2023-03-11T05:59:15.089Z,17.22
2023-03-11T05:59:43.530Z,15.45
2023-03-11T06:00:17.143Z,13.67
2023-03-11T06:00:45.084Z,12.23
2023-03-11T06:01:15.537Z,14.32
2023-03-11T06:01:46.663Z,18.66
2023-03-11T06:02:17.912Z,14.32
2023-03-11T06:02:48.802Z,12.23
2023-03-11T06:03:20.936Z,9.65
2023-03-11T06:03:51.014Z,10.13
2023-03-11T06:04:22.098Z,9.65
2023-03-11T06:04:53.760Z,13.35
2023-03-11T06:05:24.000Z,15.45
2023-03-11T06:05:55.019Z,12.23
2023-03-11T06:06:25.787Z,9.65
2023-03-11T06:06:57.349Z,11.58
2023-03-11T06:07:27.673Z,9.33
2023-03-11T06:07:59.193Z,11.10
2023-03-11T06:08:30.890Z,9.33
2023-03-11T06:09:00.667Z,9.65
2023-03-11T06:09:31.628Z,7.88
2023-03-11T06:10:02.761Z,9.01
2023-03-11T06:10:33.631Z,16.57
2023-03-11T06:11:04.523Z,10.78
2023-03-11T06:11:35.682Z,14.00
2023-03-11T06:12:06.704Z,14.80
2023-03-11T06:12:37.966Z,11.90
2023-03-11T06:13:09.057Z,12.23
2023-03-11T06:13:41.025Z,13.03
2023-03-11T06:14:11.874Z,12.55
2023-03-11T06:14:42.008Z,16.89
2023-03-11T06:15:15.774Z,13.67
2023-03-11T06:15:43.838Z,7.24
2023-03-11T06:16:14.787Z,7.88
2023-03-11T06:16:46.206Z,8.20
2023-03-11T06:17:17.199Z,8.69
2023-03-11T06:17:47.900Z,12.55
2023-03-11T06:18:18.885Z,13.35
2023-03-11T06:18:50.703Z,11.10
2023-03-11T06:19:20.762Z,12.55
2023-03-11T06:19:52.000Z,12.23
2023-03-11T06:20:22.856Z,11.58
2023-03-11T06:20:53.619Z,10.46
2023-03-11T06:21:25.029Z,7.88
2023-03-11T06:21:56.546Z,7.88
2023-03-11T06:22:27.232Z,9.01
2023-03-11T06:22:58.306Z,5.47
2023-03-11T06:23:28.903Z,8.69
2023-03-11T06:24:01.016Z,11.10
2023-03-11T06:24:31.454Z,10.78
2023-03-11T06:25:02.083Z,9.65
2023-03-11T06:25:33.007Z,12.23
2023-03-11T06:26:03.973Z,9.65
2023-03-11T06:26:34.932Z,7.24
2023-03-11T06:27:05.934Z,10.46
2023-03-11T06:27:36.797Z,10.46
2023-03-11T06:28:07.804Z,9.33
2023-03-11T06:28:38.820Z,6.11
2023-03-11T06:29:11.130Z,7.24
2023-03-11T06:29:40.819Z,5.47
2023-03-11T06:30:14.777Z,7.56
2023-03-11T06:30:42.823Z,6.11
2023-03-11T06:31:13.738Z,7.88
2023-03-11T06:31:44.714Z,4.66
2023-03-11T06:32:16.096Z,2.57
2023-03-11T06:32:47.050Z,2.89
2023-03-11T06:33:17.867Z,6.43
2023-03-11T06:33:49.102Z,7.24
2023-03-11T06:34:21.111Z,6.92
2023-03-11T06:34:50.993Z,5.79
2023-03-11T06:35:21.578Z,5.47
2023-03-11T06:35:52.688Z,4.34
2023-03-11T06:36:23.739Z,5.47
2023-03-11T06:36:55.373Z,5.47
2023-03-11T06:37:25.755Z,7.24
2023-03-11T06:37:56.730Z,4.34
2023-03-11T06:38:27.867Z,4.02
2023-03-11T06:38:59.152Z,4.34
2023-03-11T06:39:30.885Z,4.34
2023-03-11T06:40:00.786Z,8.69
2023-03-11T06:40:32.464Z,7.24
2023-03-11T06:41:03.201Z,3.54
2023-03-11T06:41:33.857Z,3.54
2023-03-11T06:42:04.622Z,3.54
2023-03-11T06:42:35.993Z,7.56
2023-03-11T06:43:06.790Z,6.92
2023-03-11T06:43:37.951Z,4.02
2023-03-11T06:44:08.779Z,4.02
2023-03-11T06:44:40.768Z,2.09
2023-03-11T06:45:14.648Z,4.66
2023-03-11T06:45:41.791Z,2.09
2023-03-11T06:46:12.764Z,4.98
2023-03-11T06:46:43.579Z,4.02
2023-03-11T06:47:14.691Z,2.57
2023-03-11T06:47:45.596Z,3.54
2023-03-11T06:48:16.502Z,2.89
2023-03-11T06:48:47.736Z,2.57
2023-03-11T06:49:18.656Z,3.21
2023-03-11T06:49:50.596Z,7.88
2023-03-11T06:50:20.666Z,7.24
2023-03-11T06:50:51.919Z,7.24
2023-03-11T06:51:22.772Z,2.09
2023-03-11T06:51:53.949Z,1.44
2023-03-11T06:52:24.893Z,1.12
2023-03-11T06:52:56.056Z,2.09
2023-03-11T06:53:27.141Z,4.66
2023-03-11T06:53:57.577Z,6.11
2023-03-11T06:54:28.795Z,5.47
2023-03-11T06:55:00.972Z,5.47
2023-03-11T06:55:30.629Z,1.77
2023-03-11T06:56:01.604Z,2.09